Neillsville, Wisconsin
Current Conditions -  °F | °C
As of 6:54 PM on Saturday 25 Oct 2014 (Local Time) from KMFI Reporting Station
Clear Clear  
Wind Chill: 51°   Ceiling: Unl
Heat Index: 51°   Visibility: 10mi
Dew Point: 29°   Wind: 9mph
Humidity: 43%   Direction: 280°W
Pressure: 29.94"   Gusts: NA
Location:  44.56°N, 90.6°W
Report Text: KMFI 252354Z AUTO 28008KT 10SM CLR 11/M02 A2994 RMK AO2 SLP145 T01061017 10167 20106 53006
Loading
Personal Weather Stations






























Interactive Weather Map New forecast layout! Learn more

10-Day Weather Forecast

Advertisements
Track Severe Weather on mobile